createdAt,value
2023-04-25T00:02:17.618Z,95090.50
2023-04-25T00:04:44.844Z,95080.53
2023-04-25T00:07:12.205Z,95075.38
2023-04-25T00:09:39.515Z,95080.31
2023-04-25T00:12:07.530Z,95078.69
2023-04-25T00:14:36.140Z,95077.69
2023-04-25T00:17:03.593Z,95071.59
2023-04-25T00:19:30.748Z,95072.09
2023-04-25T00:21:57.973Z,95073.09
2023-04-25T00:24:25.176Z,95075.16
2023-04-25T00:26:52.333Z,95073.59
2023-04-25T00:29:19.354Z,95073.34
2023-04-25T00:31:47.972Z,95064.41
2023-04-25T00:34:15.268Z,95073.59
2023-04-25T00:36:42.493Z,95064.06
2023-04-25T00:39:09.628Z,95071.53
2023-04-25T00:41:37.653Z,95069.81
2023-04-25T00:44:05.465Z,95076.44
2023-04-25T00:46:33.447Z,95074.28
2023-04-25T00:49:02.177Z,95070.25
2023-04-25T00:51:30.448Z,95079.97
2023-04-25T00:53:58.009Z,95076.78
2023-04-25T00:56:25.194Z,95079.06
2023-04-25T00:58:55.248Z,95078.41
2023-04-25T01:01:22.657Z,95084.69
2023-04-25T01:03:51.306Z,95077.84
2023-04-25T01:06:20.508Z,95075.88
2023-04-25T01:08:48.690Z,95072.91
2023-04-25T01:11:15.793Z,95073.75
2023-04-25T01:13:43.174Z,95076.00
2023-04-25T01:16:10.867Z,95072.38
2023-04-25T01:18:41.448Z,95071.34
2023-04-25T01:21:11.730Z,95089.09
2023-04-25T01:23:40.608Z,95095.03
2023-04-25T01:26:09.553Z,95096.81
2023-04-25T01:28:36.809Z,95107.97
2023-04-25T01:31:05.189Z,95101.81
2023-04-25T01:33:32.290Z,95103.63
2023-04-25T01:35:59.809Z,95106.47
2023-04-25T01:38:29.093Z,95108.81
2023-04-25T01:40:57.051Z,95115.09
2023-04-25T01:43:25.010Z,95118.31
2023-04-25T01:45:52.338Z,95104.66
2023-04-25T01:48:19.600Z,95095.72
2023-04-25T01:50:47.311Z,95096.97
2023-04-25T01:53:15.413Z,95091.78
2023-04-25T01:55:44.012Z,95086.13
2023-04-25T01:58:11.237Z,95082.91
2023-04-25T02:00:38.538Z,95075.69
2023-04-25T02:03:05.842Z,95067.09
2023-04-25T02:05:36.190Z,95060.72
2023-04-25T02:08:03.713Z,95051.94
2023-04-25T02:10:30.851Z,95054.25
2023-04-25T02:12:59.870Z,95061.03
2023-04-25T02:15:26.998Z,95064.63
2023-04-25T02:17:54.320Z,95075.25
2023-04-25T02:20:22.272Z,95078.44
2023-04-25T02:22:49.752Z,95079.66
2023-04-25T02:25:16.964Z,95073.78
2023-04-25T02:27:44.099Z,95074.34
2023-04-25T02:30:13.633Z,95073.09
2023-04-25T02:32:41.556Z,95067.81
2023-04-25T02:35:09.523Z,95068.50
2023-04-25T02:37:37.730Z,95055.34
2023-04-25T02:40:06.223Z,95063.16
2023-04-25T02:42:33.959Z,95054.00
2023-04-25T02:45:01.132Z,95050.50
2023-04-25T02:47:29.749Z,95043.91
2023-04-25T02:49:56.853Z,95041.34
2023-04-25T02:52:24.216Z,95044.75
2023-04-25T02:54:51.306Z,95027.28
2023-04-25T02:57:18.620Z,95033.78
2023-04-25T02:59:45.810Z,95036.00
2023-04-25T03:02:12.893Z,95041.41
2023-04-25T03:04:41.759Z,95038.34
2023-04-25T03:07:09.449Z,95042.78
2023-04-25T03:09:36.598Z,95046.50
2023-04-25T03:12:04.070Z,95039.69
2023-04-25T03:14:31.185Z,95046.44
2023-04-25T03:16:58.307Z,95048.56
2023-04-25T03:19:25.630Z,95042.91
2023-04-25T03:21:54.192Z,95040.81
2023-04-25T03:24:21.450Z,95043.34
2023-04-25T03:26:48.602Z,95043.19
2023-04-25T03:29:15.723Z,95039.06
2023-04-25T03:31:42.856Z,95042.13
2023-04-25T03:34:10.035Z,95044.34
2023-04-25T03:36:37.260Z,95040.88
2023-04-25T03:39:05.850Z,95034.00
2023-04-25T03:41:33.140Z,95041.69
2023-04-25T03:44:00.290Z,95048.69
2023-04-25T03:46:27.424Z,95042.88
2023-04-25T03:48:54.550Z,95038.56
2023-04-25T03:51:21.644Z,95039.38
2023-04-25T03:53:49.187Z,95041.88
2023-04-25T03:56:17.930Z,95048.09
2023-04-25T03:58:45.399Z,95045.22
2023-04-25T04:01:12.635Z,95043.88
2023-04-25T04:03:40.008Z,95044.94
2023-04-25T04:06:08.273Z,95054.78
2023-04-25T04:08:35.631Z,95050.28
2023-04-25T04:11:02.920Z,95037.50
2023-04-25T04:13:31.613Z,95033.38
2023-04-25T04:15:58.816Z,95036.41
2023-04-25T04:18:26.396Z,95029.56
2023-04-25T04:20:53.477Z,95025.13
2023-04-25T04:23:21.352Z,95032.31
2023-04-25T04:25:48.862Z,95036.84
2023-04-25T04:28:16.295Z,95047.50
2023-04-25T04:30:44.751Z,95041.56
2023-04-25T04:33:11.916Z,95030.47
2023-04-25T04:35:39.293Z,95039.34
2023-04-25T04:38:06.475Z,95047.63
2023-04-25T04:40:33.711Z,95044.94
2023-04-25T04:43:00.876Z,95044.13
2023-04-25T04:45:28.077Z,95051.47
2023-04-25T04:47:56.626Z,95042.22
2023-04-25T04:50:24.152Z,95047.72
2023-04-25T04:52:51.194Z,95049.72
2023-04-25T04:55:18.397Z,95053.41
2023-04-25T04:57:45.593Z,95052.31
2023-04-25T05:00:14.292Z,95064.13
2023-04-25T05:02:41.643Z,95053.41
2023-04-25T05:05:10.553Z,95052.53
2023-04-25T05:07:37.728Z,95057.72
2023-04-25T05:10:06.074Z,95063.09
2023-04-25T05:12:34.131Z,95061.72
2023-04-25T05:15:02.465Z,95053.91
2023-04-25T05:17:29.651Z,95049.34
2023-04-25T05:19:56.796Z,95051.97
2023-04-25T05:22:25.474Z,95053.19
2023-04-25T05:24:55.157Z,95052.47
2023-04-25T05:27:23.216Z,95055.59
2023-04-25T05:29:50.375Z,95062.00
2023-04-25T05:32:17.614Z,95056.31
2023-04-25T05:34:44.721Z,95061.59
2023-04-25T05:37:11.933Z,95059.59
2023-04-25T05:39:40.435Z,95067.63
2023-04-25T05:42:07.512Z,95063.75
2023-04-25T05:44:34.650Z,95075.41
2023-04-25T05:47:01.770Z,95088.22
2023-04-25T05:49:28.896Z,95095.66
2023-04-25T05:51:55.930Z,95093.53
2023-04-25T05:54:23.086Z,95081.59
2023-04-25T05:56:51.619Z,95086.50
2023-04-25T05:59:18.793Z,95079.59
2023-04-25T06:01:45.980Z,95085.88
2023-04-25T06:04:13.643Z,95087.38
2023-04-25T06:06:41.123Z,95086.94
2023-04-25T06:09:08.294Z,95095.44
2023-04-25T06:11:35.487Z,95092.78
2023-04-25T06:14:04.065Z,95094.28
2023-04-25T06:16:31.394Z,95097.84
2023-04-25T06:18:58.587Z,95091.31
2023-04-25T06:21:25.710Z,95096.06
2023-04-25T06:23:53.207Z,95103.75
2023-04-25T06:26:20.616Z,95102.38
2023-04-25T06:28:47.874Z,95111.66
2023-04-25T06:31:16.608Z,95104.50
2023-04-25T06:33:43.828Z,95104.97
2023-04-25T06:36:11.005Z,95104.31
2023-04-25T06:38:38.270Z,95103.19
2023-04-25T06:41:05.470Z,95106.47
2023-04-25T06:43:32.629Z,95114.72
2023-04-25T06:46:00.306Z,95097.75
2023-04-25T06:48:28.967Z,95098.56
2023-04-25T06:50:56.154Z,95099.22
2023-04-25T06:53:23.431Z,95098.78
2023-04-25T06:55:50.694Z,95104.13
2023-04-25T06:58:17.811Z,95098.78
2023-04-25T07:00:44.975Z,95090.88
2023-04-25T07:03:12.341Z,95097.44
2023-04-25T07:05:41.373Z,95093.06
2023-04-25T07:08:08.525Z,95091.31
2023-04-25T07:10:35.854Z,95091.41
2023-04-25T07:13:02.995Z,95095.88
2023-04-25T07:15:30.238Z,95102.69
2023-04-25T07:17:57.450Z,95105.38
2023-04-25T07:20:24.864Z,95104.56
2023-04-25T07:22:53.603Z,95109.34
2023-04-25T07:25:20.918Z,95108.41
2023-04-25T07:27:48.081Z,95100.13
2023-04-25T07:30:15.942Z,95107.59
2023-04-25T07:32:43.500Z,95105.06
2023-04-25T07:35:10.670Z,95107.63
2023-04-25T07:37:37.816Z,95118.28
2023-04-25T07:40:07.901Z,95126.84
2023-04-25T07:42:35.154Z,95127.59
2023-04-25T07:45:02.350Z,95122.75
2023-04-25T07:47:29.610Z,95114.81
2023-04-25T07:49:56.694Z,95109.94
2023-04-25T07:52:23.896Z,95115.22
2023-04-25T07:54:51.034Z,95116.63
2023-04-25T07:57:20.374Z,95112.75
2023-04-25T07:59:47.612Z,95116.09
2023-04-25T08:02:14.893Z,95112.72
2023-04-25T08:04:42.308Z,95122.31
2023-04-25T08:07:09.672Z,95122.19
2023-04-25T08:09:36.936Z,95129.66
2023-04-25T08:12:05.020Z,95131.53
2023-04-25T08:14:33.621Z,95142.78
2023-04-25T08:17:00.770Z,95151.03
2023-04-25T08:19:27.877Z,95162.75
2023-04-25T08:21:54.940Z,95154.88
2023-04-25T08:24:22.154Z,95156.03
2023-04-25T08:26:49.555Z,95167.56
2023-04-25T08:29:17.020Z,95174.38
2023-04-25T08:31:45.661Z,95172.50
2023-04-25T08:34:13.020Z,95178.59
2023-04-25T08:36:40.565Z,95176.31
2023-04-25T08:39:07.760Z,95178.94
2023-04-25T08:41:35.317Z,95185.16
2023-04-25T08:44:04.899Z,95188.66
2023-04-25T08:46:32.914Z,95191.41
2023-04-25T08:49:03.048Z,95193.31
2023-04-25T08:51:33.638Z,95194.94
2023-04-25T08:54:23.393Z,95200.78
2023-04-25T08:56:58.915Z,95206.53
2023-04-25T08:59:28.041Z,95200.56
2023-04-25T09:01:55.929Z,95210.09
2023-04-25T09:04:24.628Z,95215.38
2023-04-25T09:06:52.024Z,95210.09
2023-04-25T09:09:19.230Z,95222.34
2023-04-25T09:11:46.449Z,95216.66
2023-04-25T09:14:18.726Z,95227.53
2023-04-25T09:17:01.094Z,95232.41
2023-04-25T09:19:40.277Z,95251.88
2023-04-25T09:22:09.305Z,95278.53
2023-04-25T09:24:38.718Z,95295.84
2023-04-25T09:27:07.169Z,95304.81
2023-04-25T09:29:35.880Z,95296.34
2023-04-25T09:32:15.663Z,95300.09
2023-04-25T09:34:48.688Z,95298.34
2023-04-25T09:37:19.792Z,95292.13
2023-04-25T09:39:47.728Z,95285.16
2023-04-25T09:42:16.152Z,95282.53
2023-04-25T09:44:44.446Z,95269.44
2023-04-25T09:47:12.872Z,95269.78
2023-04-25T09:49:41.909Z,95267.31
2023-04-25T09:52:14.793Z,95258.94
2023-04-25T09:54:41.910Z,95253.88
2023-04-25T09:57:13.090Z,95259.00
2023-04-25T09:59:45.314Z,95266.03
2023-04-25T10:02:14.438Z,95274.31
2023-04-25T10:04:43.936Z,95285.31
2023-04-25T10:07:13.433Z,95278.41
2023-04-25T10:09:41.924Z,95285.53
2023-04-25T10:12:09.670Z,95287.78
2023-04-25T10:14:36.919Z,95300.13
2023-04-25T10:17:04.560Z,95302.44
2023-04-25T10:19:32.409Z,95307.81
2023-04-25T10:22:08.290Z,95301.09
2023-04-25T10:24:38.778Z,95316.06
2023-04-25T10:27:07.209Z,95312.63
2023-04-25T10:29:34.277Z,95310.41
2023-04-25T10:32:01.565Z,95310.59
2023-04-25T10:34:41.038Z,95305.72
2023-04-25T10:37:11.249Z,95310.84
2023-04-25T10:39:42.509Z,95315.31
2023-04-25T10:42:10.353Z,95319.19
2023-04-25T10:44:39.398Z,95311.66
2023-04-25T10:47:09.110Z,95315.25
2023-04-25T10:49:38.361Z,95307.66
2023-04-25T10:52:28.448Z,95308.09
2023-04-25T10:54:58.970Z,95305.84
2023-04-25T10:57:39.084Z,95313.09
2023-04-25T11:00:15.919Z,95316.19
2023-04-25T11:02:45.317Z,95316.09
2023-04-25T11:05:23.547Z,95325.66
2023-04-25T11:08:06.300Z,95330.47
2023-04-25T11:10:36.013Z,95321.41
2023-04-25T11:13:03.272Z,95323.28
2023-04-25T11:15:30.441Z,95317.53
2023-04-25T11:17:57.582Z,95305.28
2023-04-25T11:20:27.691Z,95307.50
2023-04-25T11:23:00.076Z,95314.44
2023-04-25T11:25:27.690Z,95302.28
2023-04-25T11:27:58.490Z,95307.63
2023-04-25T11:30:28.434Z,95300.44
2023-04-25T11:32:56.479Z,95300.94
2023-04-25T11:35:24.332Z,95300.53
2023-04-25T11:37:52.268Z,95300.47
2023-04-25T11:40:20.230Z,95295.94
2023-04-25T11:42:48.708Z,95298.63
2023-04-25T11:45:18.365Z,95299.00
2023-04-25T11:47:45.468Z,95311.44
2023-04-25T11:50:12.897Z,95312.72
2023-04-25T11:52:41.954Z,95308.44
2023-04-25T11:55:11.507Z,95310.69
2023-04-25T11:57:40.801Z,95313.78
2023-04-25T12:00:11.197Z,95299.94
2023-04-25T12:02:42.379Z,95297.66
2023-04-25T12:05:27.151Z,95293.06
2023-04-25T12:07:58.504Z,95296.84
2023-04-25T12:10:26.620Z,95298.94
2023-04-25T12:12:53.839Z,95307.13
2023-04-25T12:15:26.239Z,95307.16
2023-04-25T12:17:55.692Z,95301.47
2023-04-25T12:20:26.170Z,95300.47
2023-04-25T12:22:54.079Z,95305.94
2023-04-25T12:25:38.206Z,95315.41
2023-04-25T12:28:13.197Z,95310.50
2023-04-25T12:30:57.472Z,95317.09
2023-04-25T12:33:28.053Z,95301.66
2023-04-25T12:35:55.312Z,95306.34
2023-04-25T12:38:23.909Z,95307.97
2023-04-25T12:40:51.077Z,95309.72
2023-04-25T12:43:18.190Z,95308.25
2023-04-25T12:45:45.434Z,95310.88
2023-04-25T12:48:12.621Z,95309.50
2023-04-25T12:50:41.355Z,95316.63
2023-04-25T12:53:08.456Z,95311.94
2023-04-25T12:55:35.654Z,95311.38
2023-04-25T12:58:03.272Z,95305.56
2023-04-25T13:00:30.865Z,95315.00
2023-04-25T13:02:58.340Z,95304.09
2023-04-25T13:05:26.451Z,95304.00
2023-04-25T13:07:55.274Z,95298.97
2023-04-25T13:10:22.796Z,95306.31
2023-04-25T13:12:50.433Z,95306.31
2023-04-25T13:15:17.674Z,95306.94
2023-04-25T13:17:44.934Z,95309.84
2023-04-25T13:20:12.514Z,95306.63
2023-04-25T13:22:40.972Z,95303.31
2023-04-25T13:25:10.188Z,95304.44
2023-04-25T13:27:38.673Z,95307.97
2023-04-25T13:30:07.484Z,95299.00
2023-04-25T13:32:34.771Z,95296.66
2023-04-25T13:35:03.728Z,95303.94
2023-04-25T13:37:33.190Z,95312.47
2023-04-25T13:40:01.352Z,95304.28
2023-04-25T13:42:30.396Z,95307.03
2023-04-25T13:44:57.916Z,95301.34
2023-04-25T13:47:28.233Z,95304.84
2023-04-25T13:49:55.560Z,95303.41
2023-04-25T13:52:22.964Z,95295.34
2023-04-25T13:54:50.073Z,95298.22
2023-04-25T13:57:17.249Z,95302.25
2023-04-25T13:59:45.879Z,95301.66
2023-04-25T14:02:14.074Z,95312.94
2023-04-25T14:04:42.298Z,95299.97
2023-04-25T14:07:09.771Z,95296.81
2023-04-25T14:09:36.932Z,95306.94
2023-04-25T14:12:04.338Z,95307.91
2023-04-25T14:14:31.560Z,95297.84
2023-04-25T14:17:00.255Z,95307.66
2023-04-25T14:19:27.510Z,95312.16
2023-04-25T14:21:54.691Z,95304.44
2023-04-25T14:24:21.945Z,95306.94
2023-04-25T14:26:49.231Z,95309.00
2023-04-25T14:29:16.395Z,95303.00
2023-04-25T14:31:43.546Z,95298.44
2023-04-25T14:34:12.320Z,95303.31
2023-04-25T14:36:40.312Z,95288.97
2023-04-25T14:39:07.532Z,95290.47
2023-04-25T14:41:34.720Z,95293.31
2023-04-25T14:44:01.994Z,95290.09
2023-04-25T14:46:29.139Z,95286.13
2023-04-25T14:48:56.596Z,95288.81
2023-04-25T14:51:25.310Z,95285.94
2023-04-25T14:53:52.888Z,95300.28
2023-04-25T14:56:20.288Z,95290.03
2023-04-25T14:58:47.490Z,95288.75
2023-04-25T15:01:15.702Z,95287.97
2023-04-25T15:03:43.233Z,95285.94
2023-04-25T15:06:10.940Z,95285.78
2023-04-25T15:08:39.710Z,95288.13
2023-04-25T15:11:06.877Z,95283.53
2023-04-25T15:13:34.076Z,95283.59
2023-04-25T15:16:01.254Z,95283.84
2023-04-25T15:18:28.525Z,95281.63
2023-04-25T15:20:55.643Z,95287.16
2023-04-25T15:23:24.114Z,95288.31
2023-04-25T15:25:53.886Z,95285.44
2023-04-25T15:28:21.075Z,95281.53
2023-04-25T15:30:48.497Z,95281.38
2023-04-25T15:33:15.798Z,95277.91
2023-04-25T15:35:43.080Z,95282.94
2023-04-25T15:38:10.316Z,95289.88
2023-04-25T15:40:37.786Z,95288.97
2023-04-25T15:43:06.458Z,95303.06
2023-04-25T15:45:33.977Z,95298.53
2023-04-25T15:48:01.245Z,95299.44
2023-04-25T15:50:28.463Z,95298.00
2023-04-25T15:52:55.901Z,95296.88
2023-04-25T15:55:22.996Z,95294.84
2023-04-25T15:57:50.411Z,95295.94
2023-04-25T16:00:19.640Z,95299.00
2023-04-25T16:02:46.954Z,95299.16
2023-04-25T16:05:14.818Z,95293.69
2023-04-25T16:07:43.353Z,95293.19
2023-04-25T16:10:11.681Z,95299.75
2023-04-25T16:12:39.159Z,95299.41
2023-04-25T16:15:07.678Z,95298.28
2023-04-25T16:17:36.576Z,95300.38
2023-04-25T16:20:04.163Z,95302.44
2023-04-25T16:22:32.029Z,95309.81
2023-04-25T16:24:59.213Z,95311.31
2023-04-25T16:27:26.297Z,95313.38
2023-04-25T16:29:53.590Z,95319.84
2023-04-25T16:32:20.775Z,95315.31
2023-04-25T16:34:49.314Z,95312.00
2023-04-25T16:37:16.576Z,95315.47
2023-04-25T16:39:43.754Z,95319.34
2023-04-25T16:42:10.993Z,95308.81
2023-04-25T16:44:38.231Z,95303.13
2023-04-25T16:47:05.539Z,95306.44
2023-04-25T16:49:32.992Z,95311.66
2023-04-25T16:52:01.627Z,95302.81
2023-04-25T16:54:28.728Z,95301.34
2023-04-25T16:56:55.843Z,95304.19
2023-04-25T16:59:22.884Z,95300.91
2023-04-25T17:01:50.079Z,95301.00
2023-04-25T17:04:17.764Z,95303.63
2023-04-25T17:06:44.909Z,95309.97
2023-04-25T17:09:13.745Z,95312.78
2023-04-25T17:11:41.013Z,95320.22
2023-04-25T17:14:08.228Z,95313.59
2023-04-25T17:16:36.285Z,95321.06
2023-04-25T17:19:04.586Z,95320.38
2023-04-25T17:21:31.959Z,95321.53
2023-04-25T17:23:59.772Z,95326.47
2023-04-25T17:26:28.715Z,95333.63
2023-04-25T17:28:55.991Z,95337.44
2023-04-25T17:31:23.384Z,95330.66
2023-04-25T17:33:50.721Z,95331.59
2023-04-25T17:36:18.008Z,95335.66
2023-04-25T17:38:45.374Z,95336.97
2023-04-25T17:41:12.739Z,95341.41
2023-04-25T17:43:41.510Z,95335.78
2023-04-25T17:46:08.911Z,95336.03
2023-04-25T17:48:36.322Z,95340.38
2023-04-25T17:51:04.593Z,95334.09
2023-04-25T17:53:40.829Z,95336.84
2023-04-25T17:56:19.314Z,95339.63
2023-04-25T17:58:55.220Z,95347.88
2023-04-25T18:01:22.841Z,95352.81
2023-04-25T18:03:50.641Z,95347.88
2023-04-25T18:06:18.285Z,95349.25
2023-04-25T18:08:46.508Z,95350.44
2023-04-25T18:11:14.433Z,95357.44
2023-04-25T18:13:41.724Z,95355.47
2023-04-25T18:16:10.390Z,95356.50
2023-04-25T18:18:40.791Z,95362.34
2023-04-25T18:21:08.030Z,95360.41
2023-04-25T18:23:36.301Z,95366.13
2023-04-25T18:26:03.580Z,95358.22
2023-04-25T18:28:30.631Z,95370.72
2023-04-25T18:30:57.830Z,95372.66
2023-04-25T18:33:26.538Z,95373.13
2023-04-25T18:38:34.973Z,95373.38
2023-04-25T18:41:24.107Z,95376.53
2023-04-25T18:43:50.887Z,95372.06
2023-04-25T18:46:18.345Z,95374.69
2023-04-25T18:48:46.973Z,95383.41
2023-04-25T18:51:14.179Z,95380.69
2023-04-25T18:53:41.493Z,95379.44
2023-04-25T18:56:08.753Z,95381.00
2023-04-25T18:58:36.073Z,95388.97
2023-04-25T19:01:03.301Z,95385.41
2023-04-25T19:03:30.838Z,95394.19
2023-04-25T19:06:01.571Z,95398.53
2023-04-25T19:08:29.078Z,95390.13
2023-04-25T19:10:56.310Z,95397.44
2023-04-25T19:13:23.848Z,95404.19
2023-04-25T19:15:50.990Z,95399.81
2023-04-25T19:18:18.165Z,95395.41
2023-04-25T19:20:45.629Z,95394.41
2023-04-25T19:23:14.415Z,95403.53
2023-04-25T19:25:41.492Z,95407.06
2023-04-25T19:28:08.847Z,95406.03
2023-04-25T19:30:36.096Z,95407.31
2023-04-25T19:33:03.643Z,95404.09
2023-04-25T19:35:30.854Z,95413.44
2023-04-25T19:37:58.186Z,95408.06
2023-04-25T19:40:27.360Z,95410.09
2023-04-25T19:42:54.496Z,95409.16
2023-04-25T19:45:22.048Z,95412.44
2023-04-25T19:47:49.433Z,95409.63
2023-04-25T19:50:16.695Z,95415.88
2023-04-25T19:52:43.978Z,95413.06
2023-04-25T19:55:11.480Z,95419.59
2023-04-25T19:57:40.038Z,95414.63
2023-04-25T20:00:10.828Z,95417.84
2023-04-25T20:02:38.584Z,95420.00
2023-04-25T20:05:07.376Z,95413.00
2023-04-25T20:07:34.868Z,95414.22
2023-04-25T20:10:02.092Z,95409.19
2023-04-25T20:12:29.268Z,95408.19
2023-04-25T20:14:58.088Z,95407.78
2023-04-25T20:17:25.282Z,95412.28
2023-04-25T20:19:52.384Z,95416.34
2023-04-25T20:22:19.680Z,95418.81
2023-04-25T20:24:46.849Z,95417.25
2023-04-25T20:27:14.110Z,95414.84
2023-04-25T20:29:41.310Z,95419.53
2023-04-25T20:32:09.993Z,95424.97
2023-04-25T20:34:37.172Z,95421.56
2023-04-25T20:37:04.588Z,95418.75
2023-04-25T20:39:31.754Z,95413.72
2023-04-25T20:41:59.010Z,95416.13
2023-04-25T20:44:26.180Z,95416.22
2023-04-25T20:46:53.431Z,95416.22
2023-04-25T20:49:22.033Z,95413.00
2023-04-25T20:51:49.368Z,95416.84
2023-04-25T20:54:16.558Z,95419.09
2023-04-25T20:56:43.915Z,95416.66
2023-04-25T20:59:11.152Z,95419.72
2023-04-25T21:01:38.502Z,95420.53
2023-04-25T21:04:05.828Z,95422.34
2023-04-25T21:06:35.639Z,95421.31
2023-04-25T21:09:02.874Z,95416.50
2023-04-25T21:11:30.115Z,95423.34
2023-04-25T21:13:57.374Z,95421.75
2023-04-25T21:16:24.550Z,95420.78
2023-04-25T21:18:52.204Z,95416.53
2023-04-25T21:21:19.741Z,95417.09
2023-04-25T21:23:48.492Z,95414.13
2023-04-25T21:26:15.679Z,95412.31
2023-04-25T21:28:42.816Z,95406.22
2023-04-25T21:31:09.982Z,95408.50
2023-04-25T21:33:37.362Z,95408.63
2023-04-25T21:36:04.891Z,95407.22
2023-04-25T21:38:32.216Z,95404.03
2023-04-25T21:41:00.756Z,95411.13
2023-04-25T21:43:27.815Z,95416.97
2023-04-25T21:46:19.050Z,95413.75
2023-04-25T21:48:42.196Z,95414.97
2023-04-25T21:51:09.415Z,95417.59
2023-04-25T21:53:36.670Z,95422.09
2023-04-25T21:56:06.045Z,95419.47
2023-04-25T21:58:33.232Z,95416.44
2023-04-25T22:01:00.353Z,95418.47
2023-04-25T22:03:27.620Z,95422.13
2023-04-25T22:05:54.824Z,95426.19
2023-04-25T22:08:21.991Z,95417.34
2023-04-25T22:10:49.083Z,95423.59
2023-04-25T22:13:17.664Z,95425.81
2023-04-25T22:15:44.853Z,95428.84
2023-04-25T22:18:11.993Z,95429.06
2023-04-25T22:20:39.283Z,95431.69
2023-04-25T22:23:06.268Z,95432.50
2023-04-25T22:25:33.470Z,95435.53
2023-04-25T22:28:00.710Z,95431.50
2023-04-25T22:30:31.174Z,95430.13
2023-04-25T22:32:58.560Z,95431.72
2023-04-25T22:35:25.844Z,95443.44
2023-04-25T22:37:52.949Z,95437.75
2023-04-25T22:40:20.163Z,95436.91
2023-04-25T22:42:47.280Z,95444.56
2023-04-25T22:45:14.499Z,95446.63
2023-04-25T22:47:43.135Z,95441.63
2023-04-25T22:50:10.718Z,95443.88
2023-04-25T22:52:37.777Z,95446.94
2023-04-25T22:55:06.039Z,95441.50
2023-04-25T22:57:33.205Z,95447.41
2023-04-25T23:00:00.398Z,95442.75
2023-04-25T23:02:28.127Z,95447.59
2023-04-25T23:04:56.744Z,95440.31
2023-04-25T23:07:23.842Z,95445.91
2023-04-25T23:09:51.167Z,95443.50
2023-04-25T23:12:18.670Z,95444.34
2023-04-25T23:14:49.232Z,95442.75
2023-04-25T23:17:16.265Z,95439.53
2023-04-25T23:19:43.361Z,95456.88
2023-04-25T23:22:11.986Z,95442.38
2023-04-25T23:24:39.104Z,95438.53
2023-04-25T23:27:06.232Z,95452.47
2023-04-25T23:29:33.382Z,95448.25
2023-04-25T23:32:00.709Z,95450.06
2023-04-25T23:34:30.286Z,95458.75
2023-04-25T23:36:57.426Z,95454.69
2023-04-25T23:39:26.084Z,95456.13
2023-04-25T23:41:53.182Z,95452.91
2023-04-25T23:44:20.162Z,95464.38
2023-04-25T23:46:47.695Z,95461.75
2023-04-25T23:49:14.946Z,95468.63
2023-04-25T23:51:41.924Z,95470.22
2023-04-25T23:54:08.997Z,95473.69
2023-04-25T23:56:37.522Z,95483.19
2023-04-25T23:59:04.512Z,95478.38
